KLGF/LGF METAR and TAF weather

Enter ICAO airport designator
Station Type Date Time Source
KLGF METAR 2024/04/15 07:55 UTC NOAA

KLGF 150755Z AUTO 29006KT 10SM CLR 15/03 A2995 RMK AO2 SLP141 T01520033 $


Station Type Date Time Source
KLGF Decoded METAR 2024/04/15 07:55 UTC NOAA

Station name not available
Apr 15, 2024 - 03:55 AM EDT / 2024.04.15 0755 UTC
Wind: from the WNW (290 degrees) at 7 MPH (6 KT):0
Visibility: 10 mile(s):0
Sky conditions: clear
Temperature: 59.4 F (15.2 C)
Dew Point: 37.9 F (3.3 C)
Relative Humidity: 44%
Pressure (altimeter): 29.95 in. Hg (1014 hPa)
ob: KLGF 150755Z AUTO 29006KT 10SM CLR 15/03 A2995 RMK AO2 SLP141 T01520033
cycle: 8

Station Type Date Time Source
KLGF TAF UTC NOAA

Error!

Example: see airport list